METAR Data
IDs: Format: Raw Decoded Include TAF

Data at: 1340 UTC 14 Dec 2019

METAR for:KBRL (Burlington/SE Iowa R, IA, US)
Text:KBRL 141253Z AUTO 34012G18KT 9SM OVC012 M02/M05 A2982 RMK AO2 SLP105 T10171050
Temperature: -1.7°C ( 29°F)
Dewpoint: -5.0°C ( 23°F) [RH = 78%]
Pressure (altimeter):29.82 inches Hg (1009.9 mb) [Sea level pressure: 1010.5 mb]
Winds:from the NNW (340 degrees) at 14 MPH (12 knots; 6.2 m/s) gusting to 21 MPH (18 knots; 9.3 m/s)
Visibility: 9 sm ( 14 km)
Ceiling:1200 feet AGL
Clouds: overcast cloud deck at 1200 feet AGL
QC Flag:automated observation with no human augmentation